| time (UTC) | temp F | wind direction | speed knots | gust knots | rain 1hr in | rain 24hr in | rain mn in | humidity % | barometer mb |
| 20260906181330 | 100 | 45 | 1.7 | 5.2 | 0.00 | 0.00 | 0.00 | 39 | 1014.7 |
| 20260906180830 | 100 | 22 | 1.7 | 4.3 | 0.00 | 0.00 | 0.00 | 39 | 1014.9 |
| 20260906180329 | 99 | 184 | 1.7 | 5.2 | 0.00 | 0.00 | 0.00 | 40 | 1015.1 |
| 20260906175829 | 99 | 29 | 1.7 | 2.6 | 0.00 | 0.00 | 0.00 | 39 | 1015.2 |
| 20260906175329 | 99 | 119 | 1.7 | 2.6 | 0.00 | 0.00 | 0.00 | 41 | 1015.2 |
| 20260906174829 | 98 | 342 | 1.7 | 1.7 | 0.00 | 0.00 | 0.00 | 42 | 1015.2 |
| 20260906174329 | 98 | 124 | 1.7 | 3.5 | 0.00 | 0.00 | 0.00 | 44 | 1015.3 |
| 20260906173829 | 98 | 133 | 1.7 | 2.6 | 0.00 | 0.00 | 0.00 | 44 | 1015.4 |
| 20260906173329 | 98 | 128 | 1.7 | 2.6 | 0.00 | 0.00 | 0.00 | 43 | 1015.5 |
| 20260906172829 | 98 | 218 | 2.6 | 7.0 | 0.00 | 0.00 | 0.00 | 43 | 1015.6 |
| 20260906172329 | 99 | 246 | 2.6 | 7.8 | 0.00 | 0.00 | 0.00 | 43 | 1015.6 |
| 20260906171829 | 99 | 151 | 1.7 | 3.5 | 0.00 | 0.00 | 0.00 | 42 | 1015.7 |
| 20260906171329 | 98 | 85 | 1.7 | 2.6 | 0.00 | 0.00 | 0.00 | 44 | 1015.8 |
| 20260906170830 | 97 | 228 | 0.0 | 0.9 | 0.00 | 0.00 | 0.00 | 43 | 1016.0 |
| 20260906170329 | 97 | 122 | 0.9 | 2.6 | 0.00 | 0.00 | 0.00 | 45 | 1016.0 |
| 20260906165829 | 97 | 161 | 0.0 | 1.7 | 0.00 | 0.00 | 0.00 | 44 | 1016.0 |
| 20260906165329 | 97 | 154 | 1.7 | 3.5 | 0.00 | 0.00 | 0.00 | 44 | 1016.0 |
| 20260906164829 | 96 | 34 | 1.7 | 3.5 | 0.00 | 0.00 | 0.00 | 45 | 1016.0 |
| 20260906164329 | 96 | 138 | 1.7 | 3.5 | 0.00 | 0.00 | 0.00 | 46 | 1016.1 |
| 20260906163830 | 96 | 142 | 1.7 | 4.3 | 0.00 | 0.00 | 0.00 | 48 | 1016.2 |
| 20260906163329 | 96 | 139 | 0.0 | 3.5 | 0.00 | 0.00 | 0.00 | 46 | 1016.2 |
| 20260906162830 | 96 | 148 | 0.9 | 3.5 | 0.00 | 0.00 | 0.00 | 48 | 1016.1 |
| 20260906162329 | 96 | 99 | 0.9 | 2.6 | 0.00 | 0.00 | 0.00 | 46 | 1016.1 |
| 20260906161829 | 96 | 114 | 0.9 | 4.3 | 0.00 | 0.00 | 0.00 | 47 | 1016.2 |
| 20260906161329 | 96 | 139 | 1.7 | 3.5 | 0.00 | 0.00 | 0.00 | 48 | 1016.2 |
| 20260906160830 | 96 | 99 | 1.7 | 5.2 | 0.00 | 0.00 | 0.00 | 49 | 1016.2 |
| 20260906160329 | 95 | 125 | 0.9 | 1.7 | 0.00 | 0.00 | 0.00 | 51 | 1016.1 |
| 20260906155830 | 94 | 164 | 0.9 | 4.3 | 0.00 | 0.00 | 0.00 | 52 | 1016.1 |
| 20260906155329 | 94 | 140 | 0.9 | 2.6 | 0.00 | 0.00 | 0.00 | 50 | 1016.0 |
| 20260906154829 | 94 | 108 | 0.0 | 1.7 | 0.00 | 0.00 | 0.00 | 52 | 1016.0 |
| 20260906154329 | 93 | 170 | 1.7 | 3.5 | 0.00 | 0.00 | 0.00 | 52 | 1015.9 |
| 20260906153830 | 92 | 163 | 1.7 | 3.5 | 0.00 | 0.00 | 0.00 | 54 | 1015.9 |
| 20260906153329 | 92 | 161 | 0.9 | 2.6 | 0.00 | 0.00 | 0.00 | 54 | 1015.9 |
| 20260906152829 | 92 | 118 | 0.9 | 1.7 | 0.00 | 0.00 | 0.00 | 56 | 1016.0 |
| 20260906152335 | 91 | 139 | 0.9 | 1.7 | 0.00 | 0.00 | 0.00 | 56 | 1016.0 |
| 20260906151829 | 90 | 161 | 1.7 | 4.3 | 0.00 | 0.00 | 0.00 | 58 | 1016.0 |
| 20260906151330 | 89 | 115 | 0.9 | 1.7 | 0.00 | 0.00 | 0.00 | 58 | 1016.0 |
| 20260906150829 | 89 | 150 | 1.7 | 5.2 | 0.00 | 0.00 | 0.00 | 58 | 1015.9 |
| 20260906150329 | 89 | 157 | 2.6 | 6.1 | 0.00 | 0.00 | 0.00 | 58 | 1015.9 |
| 20260906145831 | 89 | 168 | 0.9 | 2.6 | 0.00 | 0.00 | 0.00 | 58 | 1015.8 |
| 20260906145330 | 88 | 147 | 0.9 | 2.6 | 0.00 | 0.00 | 0.00 | 59 | 1015.9 |
| 20260906144829 | 88 | 127 | 0.9 | 1.7 | 0.00 | 0.00 | 0.00 | 60 | 1015.9 |
| 20260906144329 | 87 | 155 | 0.9 | 2.6 | 0.00 | 0.00 | 0.00 | 61 | 1015.9 |
| 20260906143829 | 87 | 113 | 0.9 | 1.7 | 0.00 | 0.00 | 0.00 | 61 | 1016.0 |
| 20260906143330 | 87 | 185 | 0.9 | 2.6 | 0.00 | 0.00 | 0.00 | 61 | 1015.9 |
| 20260906142830 | 87 | 130 | 0.9 | 2.6 | 0.00 | 0.00 | 0.00 | 62 | 1015.9 |
| 20260906142329 | 86 | 134 | 0.0 | 1.7 | 0.00 | 0.00 | 0.00 | 62 | 1015.9 |
| 20260906141830 | 86 | 151 | 0.9 | 2.6 | 0.00 | 0.00 | 0.00 | 64 | 1015.9 |
| 20260906141330 | 85 | 131 | 0.0 | 1.7 | 0.00 | 0.00 | 0.00 | 64 | 1015.9 |
| 20260906140829 | 85 | 74 | 0.0 | 0.9 | 0.00 | 0.00 | 0.00 | 65 | 1015.9 |
| 20260906140329 | 84 | 142 | 1.7 | 4.3 | 0.00 | 0.00 | 0.00 | 65 | 1015.9 |
| 20260906135829 | 83 | 92 | 0.0 | 1.7 | 0.00 | 0.00 | 0.00 | 67 | 1015.9 |
| 20260906135330 | 82 | 100 | 0.9 | 1.7 | 0.00 | 0.00 | 0.00 | 68 | 1015.8 |
| 20260906134829 | 82 | 113 | 0.0 | 0.9 | 0.00 | 0.00 | 0.00 | 70 | 1015.7 |
| 20260906134329 | 81 | 102 | 1.7 | 2.6 | 0.00 | 0.00 | 0.00 | 70 | 1015.7 |
| 20260906133829 | 81 | 111 | 0.9 | 1.7 | 0.00 | 0.00 | 0.00 | 72 | 1015.7 |
| 20260906133329 | 80 | 139 | 0.9 | 2.6 | 0.00 | 0.00 | 0.00 | 73 | 1015.6 |
| 20260906132830 | 80 | 77 | 0.0 | 1.7 | 0.00 | 0.00 | 0.00 | 73 | 1015.5 |
| 20260906132330 | 79 | 154 | 0.0 | 1.7 | 0.00 | 0.00 | 0.00 | 74 | 1015.5 |
| 20260906131830 | 79 | 120 | 0.0 | 0.9 | 0.00 | 0.00 | 0.00 | 75 | 1015.4 |
| 20260906131329 | 78 | 360 | 0.0 | 0.0 | 0.00 | 0.00 | 0.00 | 75 | 1015.4 |
| 20260906130829 | 78 | 360 | 0.0 | 0.0 | 0.00 | 0.00 | 0.00 | 75 | 1015.4 |
| 20260906130329 | 78 | 360 | 0.0 | 0.0 | 0.00 | 0.00 | 0.00 | 76 | 1015.3 |
| 20260906125829 | 77 | 360 | 0.0 | 0.0 | 0.00 | 0.00 | 0.00 | 76 | 1015.2 |
| 20260906125329 | 77 | 137 | 0.9 | 1.7 | 0.00 | 0.00 | 0.00 | 77 | 1015.2 |
| 20260906124829 | 77 | 111 | 0.0 | 0.9 | 0.00 | 0.00 | 0.00 | 76 | 1015.1 |
| 20260906124329 | 76 | 360 | 0.0 | 0.0 | 0.00 | 0.00 | 0.00 | 77 | 1015.1 |
| 20260906123829 | 76 | 360 | 0.0 | 0.0 | 0.00 | 0.00 | 0.00 | 78 | 1015.0 |
| 20260906123329 | 76 | 360 | 0.0 | 0.0 | 0.00 | 0.00 | 0.00 | 78 | 1015.0 |
| 20260906122829 | 76 | 360 | 0.0 | 0.0 | 0.00 | 0.00 | 0.00 | 78 | 1014.9 |
| 20260906122329 | 76 | 360 | 0.0 | 0.0 | 0.00 | 0.00 | 0.00 | 78 | 1014.9 |
| 20260906121830 | 75 | 360 | 0.0 | 0.0 | 0.00 | 0.00 | 0.00 | 79 | 1014.9 |
| 20260906121329 | 75 | 151 | 0.0 | 0.0 | 0.00 | 0.00 | 0.00 | 79 | 1014.9 |
| 20260906120829 | 75 | 162 | 0.0 | 1.7 | 0.00 | 0.00 | 0.00 | 80 | 1014.9 |
| 20260906120330 | 75 | 360 | 0.0 | 0.0 | 0.00 | 0.00 | 0.00 | 79 | 1015.0 |
| 20260906115829 | 75 | 360 | 0.0 | 0.0 | 0.00 | 0.00 | 0.00 | 80 | 1014.9 |
| 20260906115330 | 75 | 360 | 0.0 | 0.0 | 0.00 | 0.00 | 0.00 | 80 | 1015.0 |
| 20260906114831 | 75 | 360 | 0.0 | 0.0 | 0.00 | 0.00 | 0.00 | 79 | 1014.9 |
| 20260906114329 | 75 | 360 | 0.0 | 0.0 | 0.00 | 0.00 | 0.00 | 79 | 1014.9 |
| 20260906113829 | 75 | 360 | 0.0 | 0.0 | 0.00 | 0.00 | 0.00 | 79 | 1014.7 |
| 20260906113329 | 75 | 360 | 0.0 | 0.0 | 0.00 | 0.00 | 0.00 | 79 | 1014.7 |
| 20260906112829 | 75 | 360 | 0.0 | 0.0 | 0.00 | 0.00 | 0.00 | 79 | 1014.6 |
| 20260906112330 | 75 | 360 | 0.0 | 0.0 | 0.00 | 0.00 | 0.00 | 79 | 1014.6 |
| 20260906111831 | 75 | 360 | 0.0 | 0.0 | 0.00 | 0.00 | 0.00 | 79 | 1014.6 |
| 20260906111329 | 75 | 360 | 0.0 | 0.0 | 0.00 | 0.00 | 0.00 | 78 | 1014.6 |
| 20260906110830 | 75 | 360 | 0.0 | 0.0 | 0.00 | 0.00 | 0.00 | 78 | 1014.6 |
| 20260906110329 | 75 | 360 | 0.0 | 0.0 | 0.00 | 0.00 | 0.00 | 78 | 1014.5 |
| 20260906105829 | 76 | 360 | 0.0 | 0.0 | 0.00 | 0.00 | 0.00 | 78 | 1014.6 |
| 20260906105330 | 76 | 360 | 0.0 | 0.0 | 0.00 | 0.00 | 0.00 | 77 | 1014.5 |
| 20260906104829 | 76 | 360 | 0.0 | 0.0 | 0.00 | 0.00 | 0.00 | 77 | 1014.5 |
| 20260906104329 | 76 | 360 | 0.0 | 0.0 | 0.00 | 0.00 | 0.00 | 77 | 1014.5 |
| 20260906103830 | 76 | 360 | 0.0 | 0.0 | 0.00 | 0.00 | 0.00 | 76 | 1014.5 |
| 20260906103329 | 76 | 360 | 0.0 | 0.0 | 0.00 | 0.00 | 0.00 | 76 | 1014.5 |
| 20260906102829 | 76 | 360 | 0.0 | 0.0 | 0.00 | 0.00 | 0.00 | 76 | 1014.5 |
| 20260906102330 | 76 | 360 | 0.0 | 0.0 | 0.00 | 0.00 | 0.00 | 76 | 1014.4 |
| 20260906101829 | 76 | 360 | 0.0 | 0.0 | 0.00 | 0.00 | 0.00 | 77 | 1014.4 |
| 20260906101329 | 76 | 360 | 0.0 | 0.0 | 0.00 | 0.00 | 0.00 | 76 | 1014.4 |
| 20260906100830 | 76 | 360 | 0.0 | 0.0 | 0.00 | 0.00 | 0.00 | 76 | 1014.4 |
| 20260906100329 | 76 | 177 | 0.0 | 1.7 | 0.00 | 0.00 | 0.00 | 76 | 1014.3 |
| 20260906095829 | 76 | 360 | 0.0 | 0.0 | 0.00 | 0.00 | 0.00 | 76 | 1014.3 |
| 20260906095330 | 76 | 360 | 0.0 | 0.0 | 0.00 | 0.00 | 0.00 | 75 | 1014.2 |
| 20260906094829 | 76 | 360 | 0.0 | 0.0 | 0.00 | 0.00 | 0.00 | 76 | 1014.2 |
| 20260906094330 | 77 | 360 | 0.0 | 0.0 | 0.00 | 0.00 | 0.00 | 76 | 1014.2 |
| 20260906093829 | 77 | 360 | 0.0 | 0.0 | 0.00 | 0.00 | 0.00 | 75 | 1014.2 |
| 20260906093331 | 77 | 360 | 0.0 | 0.0 | 0.00 | 0.00 | 0.00 | 75 | 1014.2 |
| 20260906092830 | 77 | 360 | 0.0 | 0.0 | 0.00 | 0.00 | 0.00 | 75 | 1014.2 |
| 20260906092329 | 77 | 360 | 0.0 | 0.0 | 0.00 | 0.00 | 0.00 | 75 | 1014.1 |
| 20260906091838 | 77 | 360 | 0.0 | 0.0 | 0.00 | 0.00 | 0.00 | 75 | 1014.1 |
| 20260906091329 | 77 | 360 | 0.0 | 0.0 | 0.00 | 0.00 | 0.00 | 75 | 1014.1 |
| 20260906090831 | 77 | 360 | 0.0 | 0.0 | 0.00 | 0.00 | 0.00 | 75 | 1014.1 |
| 20260906090329 | 77 | 360 | 0.0 | 0.0 | 0.00 | 0.00 | 0.00 | 75 | 1014.1 |
| 20260906085830 | 77 | 360 | 0.0 | 0.0 | 0.00 | 0.00 | 0.00 | 75 | 1014.0 |
| 20260906085329 | 77 | 360 | 0.0 | 0.0 | 0.00 | 0.00 | 0.00 | 74 | 1014.0 |
| 20260906084829 | 77 | 360 | 0.0 | 0.0 | 0.00 | 0.00 | 0.00 | 74 | 1013.9 |
| 20260906084329 | 77 | 360 | 0.0 | 0.0 | 0.00 | 0.00 | 0.00 | 74 | 1013.9 |
| 20260906083829 | 78 | 360 | 0.0 | 0.0 | 0.00 | 0.00 | 0.00 | 74 | 1013.8 |
| 20260906083329 | 78 | 360 | 0.0 | 0.0 | 0.00 | 0.00 | 0.00 | 73 | 1013.8 |
| 20260906082829 | 78 | 360 | 0.0 | 0.0 | 0.00 | 0.00 | 0.00 | 73 | 1013.8 |
| 20260906082329 | 78 | 360 | 0.0 | 0.0 | 0.00 | 0.00 | 0.00 | 73 | 1013.8 |
| 20260906081829 | 78 | 360 | 0.0 | 0.0 | 0.00 | 0.00 | 0.00 | 72 | 1013.8 |
| 20260906081329 | 78 | 360 | 0.0 | 0.0 | 0.00 | 0.00 | 0.00 | 72 | 1013.9 |
| 20260906080829 | 78 | 360 | 0.0 | 0.0 | 0.00 | 0.00 | 0.00 | 72 | 1013.9 |
| 20260906080329 | 78 | 360 | 0.0 | 0.0 | 0.00 | 0.00 | 0.00 | 72 | 1013.8 |
| 20260906075829 | 78 | 193 | 0.0 | 1.7 | 0.00 | 0.00 | 0.00 | 72 | 1013.8 |
| 20260906075329 | 78 | 360 | 0.0 | 0.0 | 0.00 | 0.00 | 0.00 | 73 | 1013.9 |
| 20260906074829 | 78 | 360 | 0.0 | 0.0 | 0.00 | 0.00 | 0.00 | 73 | 1013.9 |
| 20260906074329 | 78 | 360 | 0.0 | 0.0 | 0.00 | 0.00 | 0.00 | 72 | 1013.9 |
| 20260906073829 | 79 | 360 | 0.0 | 0.0 | 0.00 | 0.00 | 0.00 | 72 | 1013.9 |
| 20260906073330 | 79 | 360 | 0.0 | 0.0 | 0.00 | 0.00 | 0.00 | 72 | 1013.9 |
| 20260906072829 | 79 | 360 | 0.0 | 0.0 | 0.00 | 0.00 | 0.00 | 71 | 1013.9 |
| 20260906072330 | 79 | 360 | 0.0 | 0.0 | 0.00 | 0.00 | 0.00 | 72 | 1013.9 |
| 20260906071830 | 79 | 360 | 0.0 | 0.0 | 0.00 | 0.00 | 0.00 | 72 | 1013.9 |
| 20260906071329 | 79 | 360 | 0.0 | 0.0 | 0.00 | 0.00 | 0.00 | 72 | 1013.9 |
| 20260906070829 | 79 | 360 | 0.0 | 0.0 | 0.00 | 0.00 | 0.00 | 72 | 1013.9 |
| 20260906070329 | 79 | 360 | 0.0 | 0.0 | 0.00 | 0.00 | 0.00 | 71 | 1013.9 |
| 20260906065830 | 79 | 360 | 0.0 | 0.0 | 0.00 | 0.00 | 0.00 | 71 | 1014.0 |
| 20260906065329 | 79 | 360 | 0.0 | 0.0 | 0.00 | 0.00 | 0.00 | 72 | 1014.0 |
| 20260906064829 | 79 | 360 | 0.0 | 0.0 | 0.00 | 0.00 | 0.00 | 71 | 1014.0 |
| 20260906064329 | 79 | 190 | 0.0 | 1.7 | 0.00 | 0.00 | 0.00 | 71 | 1014.1 |
| 20260906063829 | 79 | 360 | 0.0 | 0.0 | 0.00 | 0.00 | 0.00 | 72 | 1014.1 |
| 20260906063329 | 79 | 360 | 0.0 | 0.0 | 0.00 | 0.00 | 0.00 | 71 | 1014.1 |
| 20260906062830 | 79 | 360 | 0.0 | 0.0 | 0.00 | 0.00 | 0.00 | 72 | 1014.1 |
| 20260906062329 | 79 | 184 | 0.0 | 0.9 | 0.00 | 0.00 | 0.00 | 72 | 1014.1 |
| 20260906061829 | 79 | 191 | 0.0 | 0.0 | 0.00 | 0.00 | 0.00 | 72 | 1014.1 |
| 20260906061329 | 79 | 360 | 0.0 | 0.0 | 0.00 | 0.00 | 0.00 | 73 | 1014.2 |
| 20260906060829 | 79 | 360 | 0.0 | 0.0 | 0.00 | 0.00 | 0.00 | 73 | 1014.2 |
| 20260906060329 | 79 | 360 | 0.0 | 0.0 | 0.00 | 0.00 | 0.00 | 72 | 1014.2 |
| 20260906055829 | 79 | 360 | 0.0 | 0.0 | 0.00 | 0.00 | 0.00 | 72 | 1014.2 |
| 20260906055329 | 79 | 360 | 0.0 | 0.0 | 0.00 | 0.00 | 0.00 | 72 | 1014.3 |
| 20260906054830 | 80 | 360 | 0.0 | 0.0 | 0.00 | 0.00 | 0.00 | 72 | 1014.3 |
| 20260906054330 | 80 | 180 | 0.0 | 0.9 | 0.00 | 0.00 | 0.00 | 71 | 1014.4 |
| 20260906053829 | 80 | 360 | 0.0 | 0.0 | 0.00 | 0.00 | 0.00 | 71 | 1014.4 |
| 20260906053329 | 80 | 360 | 0.0 | 0.0 | 0.00 | 0.00 | 0.00 | 71 | 1014.4 |
| 20260906052830 | 80 | 360 | 0.0 | 0.0 | 0.00 | 0.00 | 0.00 | 71 | 1014.5 |
| 20260906052329 | 80 | 360 | 0.0 | 0.0 | 0.00 | 0.00 | 0.00 | 71 | 1014.4 |
| 20260906051829 | 80 | 360 | 0.0 | 0.0 | 0.00 | 0.00 | 0.00 | 71 | 1014.4 |
| 20260906051329 | 80 | 360 | 0.0 | 0.0 | 0.00 | 0.00 | 0.00 | 71 | 1014.4 |
| 20260906050829 | 80 | 360 | 0.0 | 0.0 | 0.00 | 0.00 | 0.00 | 71 | 1014.3 |
| 20260906050329 | 80 | 360 | 0.0 | 0.0 | 0.00 | 0.00 | 0.00 | 71 | 1014.3 |
| 20260906045829 | 80 | 360 | 0.0 | 0.0 | 0.00 | 0.00 | 0.00 | 71 | 1014.3 |
| 20260906045330 | 80 | 360 | 0.0 | 0.0 | 0.00 | 0.00 | 0.00 | 71 | 1014.3 |
| 20260906044829 | 81 | 360 | 0.0 | 0.0 | 0.00 | 0.00 | 0.00 | 70 | 1014.4 |
| 20260906044329 | 81 | 360 | 0.0 | 0.0 | 0.00 | 0.00 | 0.00 | 70 | 1014.3 |
| 20260906043829 | 81 | 183 | 0.0 | 1.7 | 0.00 | 0.00 | 0.00 | 70 | 1014.3 |
| 20260906043329 | 81 | 182 | 0.0 | 0.9 | 0.00 | 0.00 | 0.00 | 70 | 1014.3 |
| 20260906042830 | 81 | 173 | 0.0 | 1.7 | 0.00 | 0.00 | 0.00 | 70 | 1014.3 |
| 20260906042329 | 81 | 163 | 0.0 | 1.7 | 0.00 | 0.00 | 0.00 | 70 | 1014.3 |
| 20260906041830 | 81 | 360 | 0.0 | 0.0 | 0.00 | 0.00 | 0.00 | 70 | 1014.3 |
| 20260906041329 | 81 | 174 | 0.0 | 1.7 | 0.00 | 0.00 | 0.00 | 70 | 1014.2 |
| 20260906040829 | 82 | 360 | 0.0 | 0.0 | 0.00 | 0.00 | 0.00 | 70 | 1014.2 |
| 20260906040329 | 82 | 165 | 0.9 | 2.6 | 0.00 | 0.00 | 0.00 | 70 | 1014.2 |
| 20260906035829 | 82 | 166 | 0.0 | 2.6 | 0.00 | 0.00 | 0.00 | 70 | 1014.1 |
| 20260906035329 | 82 | 169 | 0.0 | 1.7 | 0.00 | 0.00 | 0.00 | 70 | 1014.1 |
| 20260906034829 | 82 | 360 | 0.0 | 0.0 | 0.00 | 0.00 | 0.00 | 70 | 1014.1 |
| 20260906034329 | 82 | 360 | 0.0 | 0.0 | 0.00 | 0.00 | 0.00 | 70 | 1014.1 |
| 20260906033829 | 82 | 185 | 0.0 | 1.7 | 0.00 | 0.00 | 0.00 | 69 | 1014.0 |
| 20260906033329 | 82 | 174 | 0.9 | 2.6 | 0.00 | 0.00 | 0.00 | 69 | 1014.0 |
| 20260906032830 | 82 | 173 | 0.9 | 2.6 | 0.00 | 0.00 | 0.00 | 69 | 1013.9 |
| 20260906032329 | 82 | 178 | 0.0 | 1.7 | 0.00 | 0.00 | 0.00 | 69 | 1013.9 |
| 20260906031830 | 82 | 160 | 1.7 | 2.6 | 0.00 | 0.00 | 0.00 | 69 | 1014.0 |
| 20260906031330 | 82 | 170 | 0.9 | 2.6 | 0.00 | 0.00 | 0.00 | 69 | 1013.9 |
| 20260906030829 | 82 | 195 | 0.9 | 1.7 | 0.00 | 0.00 | 0.00 | 69 | 1013.9 |
| 20260906030330 | 83 | 180 | 0.9 | 1.7 | 0.00 | 0.00 | 0.00 | 68 | 1013.9 |
| 20260906025829 | 83 | 167 | 0.0 | 1.7 | 0.00 | 0.00 | 0.00 | 68 | 1013.7 |
| 20260906025330 | 83 | 177 | 0.9 | 2.6 | 0.00 | 0.00 | 0.00 | 67 | 1013.6 |
| 20260906024829 | 83 | 173 | 0.9 | 2.6 | 0.00 | 0.00 | 0.00 | 67 | 1013.5 |
| 20260906024329 | 83 | 171 | 0.0 | 1.7 | 0.00 | 0.00 | 0.00 | 67 | 1013.5 |
| 20260906023829 | 83 | 360 | 0.0 | 0.0 | 0.00 | 0.00 | 0.00 | 66 | 1013.4 |
| 20260906023329 | 84 | 360 | 0.0 | 0.0 | 0.00 | 0.00 | 0.00 | 66 | 1013.3 |
| 20260906022829 | 84 | 167 | 0.0 | 2.6 | 0.00 | 0.00 | 0.00 | 65 | 1013.3 |
| 20260906022329 | 84 | 162 | 0.0 | 2.6 | 0.00 | 0.00 | 0.00 | 65 | 1013.2 |
| 20260906021829 | 84 | 360 | 0.0 | 0.0 | 0.00 | 0.00 | 0.00 | 65 | 1013.2 |
| 20260906021329 | 85 | 168 | 0.0 | 0.0 | 0.00 | 0.00 | 0.00 | 64 | 1013.2 |
| 20260906020831 | 85 | 360 | 0.0 | 0.0 | 0.00 | 0.00 | 0.00 | 63 | 1013.1 |
| 20260906020329 | 85 | 360 | 0.0 | 0.0 | 0.00 | 0.00 | 0.00 | 63 | 1013.0 |
| 20260906015830 | 85 | 165 | 0.0 | 2.6 | 0.00 | 0.00 | 0.00 | 62 | 1013.0 |
| 20260906015329 | 86 | 360 | 0.0 | 0.0 | 0.00 | 0.00 | 0.00 | 60 | 1013.0 |
| 20260906014829 | 86 | 360 | 0.0 | 0.0 | 0.00 | 0.00 | 0.00 | 60 | 1012.9 |
| 20260906014330 | 86 | 360 | 0.0 | 0.0 | 0.00 | 0.00 | 0.00 | 59 | 1012.7 |
| 20260906013829 | 87 | 176 | 0.0 | 1.7 | 0.00 | 0.00 | 0.00 | 58 | 1012.7 |
| 20260906013331 | 87 | 360 | 0.0 | 0.0 | 0.00 | 0.00 | 0.00 | 57 | 1012.7 |
| 20260906012829 | 87 | 168 | 0.0 | 0.9 | 0.00 | 0.00 | 0.00 | 56 | 1012.6 |
| 20260906012329 | 88 | 360 | 0.0 | 0.0 | 0.00 | 0.00 | 0.00 | 55 | 1012.5 |
| 20260906011830 | 88 | 191 | 0.0 | 1.7 | 0.00 | 0.00 | 0.00 | 54 | 1012.5 |
| 20260906011329 | 88 | 182 | 1.7 | 1.7 | 0.00 | 0.00 | 0.00 | 54 | 1012.5 |
| 20260906010830 | 89 | 196 | 0.0 | 1.7 | 0.00 | 0.00 | 0.00 | 53 | 1012.5 |
| 20260906010329 | 89 | 194 | 0.0 | 1.7 | 0.00 | 0.00 | 0.00 | 52 | 1012.5 |
| 20260906005829 | 89 | 192 | 1.7 | 2.6 | 0.00 | 0.00 | 0.00 | 52 | 1012.4 |
| 20260906004845 | 90 | 192 | 1.7 | 2.6 | 0.00 | 0.00 | 0.00 | 51 | 1012.4 |
| 20260906004329 | 90 | 207 | 0.0 | 1.7 | 0.00 | 0.00 | 0.00 | 51 | 1012.4 |
| 20260906003829 | 91 | 218 | 0.9 | 1.7 | 0.00 | 0.00 | 0.00 | 51 | 1012.3 |
| 20260906003330 | 92 | 174 | 1.7 | 2.6 | 0.00 | 0.00 | 0.00 | 50 | 1012.3 |
| 20260906002829 | 92 | 167 | 0.0 | 0.0 | 0.00 | 0.00 | 0.00 | 47 | 1012.3 |
| 20260906002329 | 93 | 175 | 0.9 | 1.7 | 0.00 | 0.00 | 0.00 | 46 | 1012.3 |
| 20260906001829 | 94 | 360 | 0.0 | 0.0 | 0.00 | 0.00 | 0.00 | 45 | 1012.3 |
| 20260906001329 | 94 | 360 | 0.0 | 0.0 | 0.00 | 0.00 | 0.00 | 45 | 1012.3 |
| 20260906000829 | 95 | 227 | 0.0 | 1.7 | 0.00 | 0.00 | 0.00 | 44 | 1012.3 |
| 20260906000329 | 96 | 212 | 1.7 | 2.6 | 0.00 | 0.00 | 0.00 | 43 | 1012.3 |
| 20260905235829 | 97 | 190 | 1.7 | 3.5 | 0.00 | 0.00 | 0.00 | 41 | 1012.4 |
| 20260905235330 | 98 | 216 | 1.7 | 2.6 | 0.00 | 0.00 | 0.00 | 40 | 1012.4 |
| 20260905234829 | 99 | 180 | 1.7 | 2.6 | 0.00 | 0.00 | 0.00 | 40 | 1012.4 |
| 20260905234329 | 100 | 217 | 1.7 | 2.6 | 0.00 | 0.00 | 0.00 | 39 | 1012.4 |
| 20260905233829 | 101 | 216 | 1.7 | 2.6 | 0.00 | 0.00 | 0.00 | 37 | 1012.4 |
| 20260905233329 | 102 | 226 | 2.6 | 3.5 | 0.00 | 0.00 | 0.00 | 36 | 1012.4 |
| 20260905232829 | 102 | 238 | 1.7 | 5.2 | 0.00 | 0.00 | 0.00 | 35 | 1012.3 |
| 20260905232329 | 102 | 226 | 2.6 | 3.5 | 0.00 | 0.00 | 0.00 | 35 | 1012.3 |
| 20260905231829 | 102 | 210 | 2.6 | 3.5 | 0.00 | 0.00 | 0.00 | 36 | 1012.3 |
| 20260905231329 | 102 | 216 | 1.7 | 2.6 | 0.00 | 0.00 | 0.00 | 35 | 1012.3 |
| 20260905230829 | 102 | 218 | 2.6 | 4.3 | 0.00 | 0.00 | 0.00 | 36 | 1012.3 |
| 20260905230329 | 102 | 233 | 1.7 | 5.2 | 0.00 | 0.00 | 0.00 | 36 | 1012.3 |
| 20260905225829 | 103 | 192 | 1.7 | 2.6 | 0.00 | 0.00 | 0.00 | 33 | 1012.3 |
| 20260905225329 | 102 | 220 | 2.6 | 5.2 | 0.00 | 0.00 | 0.00 | 36 | 1012.3 |
| 20260905224831 | 101 | 273 | 1.7 | 4.3 | 0.00 | 0.00 | 0.00 | 36 | 1012.3 |
| 20260905224330 | 101 | 300 | 2.6 | 4.3 | 0.00 | 0.00 | 0.00 | 35 | 1012.3 |
| 20260905223829 | 101 | 286 | 2.6 | 3.5 | 0.00 | 0.00 | 0.00 | 34 | 1012.4 |
| 20260905223329 | 101 | 268 | 1.7 | 4.3 | 0.00 | 0.00 | 0.00 | 36 | 1012.4 |
| 20260905222829 | 101 | 219 | 3.5 | 4.3 | 0.00 | 0.00 | 0.00 | 36 | 1012.5 |
| 20260905222329 | 100 | 210 | 1.7 | 3.5 | 0.00 | 0.00 | 0.00 | 37 | 1012.5 |
| 20260905221830 | 100 | 185 | 0.9 | 2.6 | 0.00 | 0.00 | 0.00 | 36 | 1012.5 |
| 20260905221330 | 100 | 201 | 0.9 | 3.5 | 0.00 | 0.00 | 0.00 | 36 | 1012.5 |
| 20260905220829 | 100 | 199 | 2.6 | 4.3 | 0.00 | 0.00 | 0.00 | 37 | 1012.5 |
| 20260905220329 | 102 | 175 | 2.6 | 3.5 | 0.00 | 0.00 | 0.00 | 36 | 1012.6 |
| 20260905215830 | 102 | 185 | 3.5 | 5.2 | 0.00 | 0.00 | 0.00 | 35 | 1012.6 |
| 20260905215329 | 101 | 151 | 1.7 | 2.6 | 0.00 | 0.00 | 0.00 | 35 | 1012.6 |
| 20260905214829 | 102 | 139 | 4.3 | 11.3 | 0.00 | 0.00 | 0.00 | 33 | 1012.6 |
| 20260905214329 | 102 | 147 | 5.2 | 7.8 | 0.00 | 0.00 | 0.00 | 35 | 1012.7 |
| 20260905213829 | 101 | 143 | 4.3 | 7.0 | 0.00 | 0.00 | 0.00 | 35 | 1012.7 |
| 20260905213329 | 101 | 145 | 5.2 | 7.8 | 0.00 | 0.00 | 0.00 | 34 | 1012.7 |
| 20260905212830 | 101 | 147 | 5.2 | 7.0 | 0.00 | 0.00 | 0.00 | 35 | 1012.8 |
| 20260905212329 | 102 | 153 | 5.2 | 11.3 | 0.00 | 0.00 | 0.00 | 34 | 1012.8 |
| 20260905211830 | 101 | 226 | 3.5 | 7.0 | 0.00 | 0.00 | 0.00 | 34 | 1012.9 |
| 20260905211330 | 101 | 146 | 2.6 | 6.1 | 0.00 | 0.00 | 0.00 | 35 | 1012.9 |
| 20260905210829 | 101 | 351 | 2.6 | 6.1 | 0.00 | 0.00 | 0.00 | 34 | 1013.0 |
| 20260905210329 | 100 | 273 | 2.6 | 4.3 | 0.00 | 0.00 | 0.00 | 35 | 1013.1 |
| 20260905205829 | 100 | 184 | 2.6 | 3.5 | 0.00 | 0.00 | 0.00 | 36 | 1013.1 |
| 20260905205330 | 100 | 186 | 1.7 | 3.5 | 0.00 | 0.00 | 0.00 | 35 | 1013.2 |
| 20260905204829 | 100 | 183 | 3.5 | 4.3 | 0.00 | 0.00 | 0.00 | 36 | 1013.2 |
| 20260905204330 | 101 | 146 | 1.7 | 5.2 | 0.00 | 0.00 | 0.00 | 36 | 1013.3 |
| 20260905203829 | 101 | 99 | 0.9 | 2.6 | 0.00 | 0.00 | 0.00 | 36 | 1013.3 |
| 20260905203329 | 101 | 350 | 3.5 | 8.7 | 0.00 | 0.00 | 0.00 | 35 | 1013.4 |
| 20260905202832 | 102 | 152 | 2.6 | 7.8 | 0.00 | 0.00 | 0.00 | 34 | 1013.5 |
| 20260905202330 | 101 | 319 | 4.3 | 8.7 | 0.00 | 0.00 | 0.00 | 36 | 1013.6 |
| 20260905201829 | 101 | 317 | 4.3 | 7.8 | 0.00 | 0.00 | 0.00 | 35 | 1013.6 |
| 20260905201329 | 101 | 281 | 2.6 | 6.1 | 0.00 | 0.00 | 0.00 | 34 | 1013.7 |
| 20260905200829 | 101 | 311 | 3.5 | 7.0 | 0.00 | 0.00 | 0.00 | 35 | 1013.7 |
| 20260905200333 | 101 | 308 | 1.7 | 4.3 | 0.00 | 0.00 | 0.00 | 35 | 1013.7 |
| 20260905195829 | 100 | 177 | 2.6 | 5.2 | 0.00 | 0.00 | 0.00 | 34 | 1013.8 |
| 20260905195330 | 100 | 121 | 1.7 | 4.3 | 0.00 | 0.00 | 0.00 | 37 | 1013.9 |
| 20260905194829 | 100 | 138 | 1.7 | 4.3 | 0.00 | 0.00 | 0.00 | 37 | 1013.9 |
| 20260905194329 | 99 | 154 | 0.9 | 2.6 | 0.00 | 0.00 | 0.00 | 37 | 1014.0 |
| 20260905193829 | 99 | 190 | 0.9 | 2.6 | 0.00 | 0.00 | 0.00 | 37 | 1014.1 |
| 20260905193331 | 99 | 321 | 2.6 | 3.5 | 0.00 | 0.00 | 0.00 | 38 | 1014.1 |
| 20260905192830 | 100 | 149 | 1.7 | 2.6 | 0.00 | 0.00 | 0.00 | 37 | 1014.1 |
| 20260905192329 | 101 | 131 | 1.7 | 2.6 | 0.00 | 0.00 | 0.00 | 36 | 1014.2 |
| 20260905191829 | 100 | 56 | 1.7 | 2.6 | 0.00 | 0.00 | 0.00 | 35 | 1014.2 |
| 20260905191329 | 100 | 130 | 1.7 | 3.5 | 0.00 | 0.00 | 0.00 | 35 | 1014.3 |
| 20260905190829 | 100 | 129 | 1.7 | 2.6 | 0.00 | 0.00 | 0.00 | 38 | 1014.3 |
| 20260905190329 | 100 | 108 | 2.6 | 3.5 | 0.00 | 0.00 | 0.00 | 35 | 1014.3 |
| 20260905185829 | 99 | 122 | 1.7 | 3.5 | 0.00 | 0.00 | 0.00 | 37 | 1014.4 |
| 20260905185329 | 99 | 135 | 2.6 | 9.6 | 0.00 | 0.00 | 0.00 | 37 | 1014.5 |
| 20260905184829 | 100 | 117 | 2.6 | 3.5 | 0.00 | 0.00 | 0.00 | 37 | 1014.6 |
| 20260905184329 | 99 | 125 | 1.7 | 2.6 | 0.00 | 0.00 | 0.00 | 38 | 1014.6 |
| 20260905183829 | 99 | 114 | 1.7 | 3.5 | 0.00 | 0.00 | 0.00 | 38 | 1014.7 |
| 20260905183329 | 99 | 128 | 2.6 | 6.1 | 0.00 | 0.00 | 0.00 | 38 | 1014.9 |
| 20260905182829 | 98 | 137 | 1.7 | 3.5 | 0.00 | 0.00 | 0.00 | 38 | 1014.9 |
| 20260905182330 | 98 | 132 | 1.7 | 2.6 | 0.00 | 0.00 | 0.00 | 38 | 1014.9 |
| 20260905181829 | 98 | 124 | 2.6 | 3.5 | 0.00 | 0.00 | 0.00 | 39 | 1015.0 |